createdAt,value
2023-01-27T00:05:39.614Z,2.90
2023-01-27T00:12:58.262Z,2.90
2023-01-27T00:19:59.264Z,2.90
2023-01-27T00:26:59.724Z,2.90
2023-01-27T00:34:08.843Z,2.90
2023-01-27T00:41:21.347Z,2.90
2023-01-27T00:48:21.405Z,2.90
2023-01-27T00:55:21.822Z,2.90
2023-01-27T01:02:22.307Z,2.90
2023-01-27T01:09:22.914Z,3.00
2023-01-27T01:16:24.216Z,3.00
2023-01-27T01:23:24.735Z,3.00
2023-01-27T01:30:27.277Z,3.10
2023-01-27T01:37:27.662Z,3.10
2023-01-27T01:44:30.768Z,3.10
2023-01-27T01:51:51.330Z,3.20
2023-01-27T01:58:55.506Z,3.20
2023-01-27T02:05:56.609Z,3.30
2023-01-27T02:12:56.973Z,3.30
2023-01-27T02:20:12.064Z,3.30
2023-01-27T02:27:14.227Z,3.30
2023-01-27T02:34:22.886Z,3.30
2023-01-27T02:41:26.872Z,3.30
2023-01-27T02:48:28.140Z,3.30
2023-01-27T02:55:28.435Z,3.30
2023-01-27T03:02:30.377Z,3.30
2023-01-27T03:09:30.704Z,3.30
2023-01-27T03:16:53.254Z,3.30
2023-01-27T03:23:53.518Z,3.30
2023-01-27T03:31:04.905Z,3.20
2023-01-27T03:38:35.566Z,3.20
2023-01-27T03:45:55.316Z,3.20
2023-01-27T03:53:04.639Z,3.20
2023-01-27T04:00:05.117Z,3.20
2023-01-27T04:07:13.952Z,3.10
2023-01-27T04:14:14.726Z,3.10
2023-01-27T04:21:15.069Z,3.10
2023-01-27T04:28:16.071Z,3.10
2023-01-27T04:35:17.441Z,3.10
2023-01-27T04:42:18.049Z,3.10
2023-01-27T04:49:19.044Z,3.10
2023-01-27T04:56:28.955Z,3.00
2023-01-27T05:03:29.182Z,3.00
2023-01-27T05:10:29.670Z,2.90
2023-01-27T05:17:34.124Z,2.90
2023-01-27T05:24:34.335Z,2.90
2023-01-27T05:31:34.841Z,2.90
2023-01-27T05:38:35.460Z,2.90
2023-01-27T05:45:35.865Z,2.90
2023-01-27T05:52:36.313Z,3.00
2023-01-27T05:59:36.697Z,3.00
2023-01-27T06:06:37.101Z,3.10
2023-01-27T06:13:40.855Z,3.10
2023-01-27T06:20:41.625Z,3.10
2023-01-27T06:27:41.634Z,3.20
2023-01-27T06:34:42.038Z,3.20
2023-01-27T06:41:43.328Z,3.20
2023-01-27T06:48:43.701Z,3.20
2023-01-27T06:55:45.017Z,3.30
2023-01-27T07:02:45.567Z,3.30
2023-01-27T07:09:52.373Z,3.40
2023-01-27T07:16:53.007Z,3.50
2023-01-27T07:23:53.454Z,3.50
2023-01-27T08:01:57.230Z,3.10
2023-01-27T08:08:57.638Z,3.70
2023-01-27T08:15:59.290Z,3.80
2023-01-27T08:22:59.419Z,3.80
2023-01-27T08:29:59.778Z,3.80
2023-01-27T08:37:00.201Z,3.90
2023-01-27T08:44:00.602Z,4.00
2023-01-27T08:51:01.645Z,4.00
2023-01-27T08:58:02.024Z,4.20
2023-01-27T09:05:02.679Z,4.30
2023-01-27T09:12:02.884Z,4.40
2023-01-27T09:19:04.130Z,4.60
2023-01-27T09:26:04.816Z,4.70
2023-01-27T09:33:05.383Z,4.80
2023-01-27T09:40:15.532Z,4.80
2023-01-27T09:47:34.007Z,4.90
2023-01-27T09:54:57.845Z,5.00
2023-01-27T10:02:22.340Z,5.10
2023-01-27T10:09:39.297Z,5.10
2023-01-27T10:16:53.061Z,5.20
2023-01-27T10:24:22.869Z,5.30
2023-01-27T10:31:36.989Z,5.30
2023-01-27T10:38:40.326Z,5.30
2023-01-27T10:46:17.663Z,5.40
2023-01-27T10:53:36.568Z,5.40
2023-01-27T11:01:18.863Z,5.40
2023-01-27T11:08:17.381Z,5.50
2023-01-27T11:15:30.029Z,5.50
2023-01-27T11:22:41.094Z,5.60
2023-01-27T11:30:07.571Z,5.60
2023-01-27T11:37:20.767Z,5.60
2023-01-27T11:44:31.813Z,5.60
2023-01-27T11:51:39.120Z,5.80
2023-01-27T11:58:48.361Z,6.20
2023-01-27T12:05:55.593Z,6.40
2023-01-27T12:12:58.168Z,6.40
2023-01-27T12:20:02.373Z,6.30
2023-01-27T12:27:05.318Z,6.30
2023-01-27T12:34:13.368Z,6.30
2023-01-27T12:41:22.822Z,6.30
2023-01-27T12:48:23.018Z,6.20
2023-01-27T12:55:55.864Z,6.20
2023-01-27T13:03:14.305Z,6.20
2023-01-27T13:10:23.920Z,6.10
2023-01-27T13:18:09.197Z,6.10
2023-01-27T13:25:17.450Z,6.00
2023-01-27T13:32:29.228Z,6.00
2023-01-27T13:39:54.881Z,6.00
2023-01-27T13:47:00.301Z,6.00
2023-01-27T13:54:03.334Z,6.00
2023-01-27T14:01:24.031Z,5.90
2023-01-27T14:08:53.000Z,5.80
2023-01-27T14:16:06.000Z,5.80
2023-01-27T14:23:26.685Z,5.80
2023-01-27T14:30:31.295Z,5.80
2023-01-27T14:37:37.118Z,5.70
2023-01-27T14:45:06.723Z,5.70
2023-01-27T14:52:28.914Z,5.70
2023-01-27T14:59:37.957Z,5.60
2023-01-27T15:06:57.136Z,5.60
2023-01-27T15:14:35.999Z,5.60
2023-01-27T15:21:47.983Z,5.60
2023-01-27T15:28:48.554Z,5.50
2023-01-27T15:35:48.947Z,5.50
2023-01-27T15:42:52.248Z,5.40
2023-01-27T15:50:12.992Z,5.30
2023-01-27T15:57:24.348Z,5.30
2023-01-27T16:04:28.156Z,5.20
2023-01-27T16:11:28.549Z,5.20
2023-01-27T16:18:42.907Z,5.10
2023-01-27T16:25:50.744Z,5.00
2023-01-27T16:33:06.814Z,5.00
2023-01-27T16:40:15.514Z,5.00
2023-01-27T16:47:35.179Z,4.90
2023-01-27T16:54:40.020Z,4.90
2023-01-27T17:01:45.504Z,4.90
2023-01-27T17:08:47.753Z,4.80
2023-01-27T17:15:48.091Z,4.70
2023-01-27T17:22:54.052Z,4.70
2023-01-27T17:30:18.806Z,4.70
2023-01-27T17:37:21.798Z,4.70
2023-01-27T17:44:22.290Z,4.60
2023-01-27T17:51:45.342Z,4.60
2023-01-27T17:58:48.786Z,4.60
2023-01-27T18:05:52.707Z,4.50
2023-01-27T18:12:54.761Z,4.50
2023-01-27T18:19:56.655Z,4.50
2023-01-27T18:26:57.093Z,4.50
2023-01-27T18:34:06.643Z,4.40
2023-01-27T18:41:11.613Z,4.30
2023-01-27T18:48:16.545Z,4.30
2023-01-27T18:55:29.273Z,4.40
2023-01-27T19:02:29.830Z,4.30
2023-01-27T19:09:30.269Z,4.30
2023-01-27T19:16:33.445Z,4.30
2023-01-27T19:23:33.529Z,4.30
2023-01-27T19:30:37.770Z,4.30
2023-01-27T19:37:38.492Z,4.30
2023-01-27T19:44:38.761Z,4.30
2023-01-27T19:51:39.171Z,4.20
2023-01-27T19:58:40.020Z,4.20
2023-01-27T20:05:40.476Z,4.20
2023-01-27T20:12:40.976Z,4.20
2023-01-27T20:19:42.285Z,4.20
2023-01-27T20:26:42.795Z,4.20
2023-01-27T20:33:43.325Z,4.20
2023-01-27T20:40:43.812Z,4.20
2023-01-27T20:47:49.314Z,4.20
2023-01-27T20:54:49.927Z,4.20
2023-01-27T21:01:50.305Z,4.20
2023-01-27T21:08:50.846Z,4.20
2023-01-27T21:15:51.317Z,4.20
2023-01-27T21:22:51.680Z,4.20
2023-01-27T21:29:52.778Z,4.10
2023-01-27T21:36:55.739Z,4.10
2023-01-27T21:44:14.695Z,4.00
2023-01-27T21:51:15.446Z,3.90
2023-01-27T21:58:15.525Z,3.90
2023-01-27T22:05:16.252Z,3.90
2023-01-27T22:12:17.317Z,3.90
2023-01-27T22:19:17.865Z,3.80
2023-01-27T22:26:20.653Z,3.80
2023-01-27T22:33:20.791Z,3.70
2023-01-27T22:40:21.154Z,3.70
2023-01-27T22:47:21.894Z,3.60
2023-01-27T22:54:22.045Z,3.60
2023-01-27T23:01:22.855Z,3.60
2023-01-27T23:08:23.234Z,3.60
2023-01-27T23:15:23.631Z,3.50
2023-01-27T23:22:23.999Z,3.40
2023-01-27T23:29:26.135Z,3.40
2023-01-27T23:36:27.360Z,3.30
2023-01-27T23:43:28.268Z,3.20
2023-01-27T23:50:28.618Z,3.10
2023-01-27T23:57:29.079Z,2.90
